createdAt,value
2019-04-01T00:06:27.681Z,10.78
2019-04-01T00:06:27.721Z,8.65
2019-04-01T00:12:22.687Z,12.6
2019-04-01T00:18:17.734Z,10.23
2019-04-01T00:24:12.780Z,11.26
2019-04-01T00:30:07.771Z,9.3
2019-04-01T00:36:02.699Z,12.67
2019-04-01T00:41:57.727Z,11.45
2019-04-01T00:47:52.678Z,11.53
2019-04-01T00:59:42.707Z,9.49
2019-04-01T00:59:42.750Z,12.47
2019-04-01T01:05:37.732Z,9.65
2019-04-01T01:11:33.018Z,9.55
2019-04-01T01:17:27.739Z,9.82
2019-04-01T01:23:22.725Z,10.32
2019-04-01T01:29:17.698Z,9.91
2019-04-01T01:35:12.720Z,9.58
2019-04-01T01:41:07.766Z,10.38
2019-04-01T01:47:02.781Z,11.37
2019-04-01T01:52:57.807Z,11.23
2019-04-01T01:58:52.733Z,10.21
2019-04-01T02:04:47.764Z,8.83
2019-04-01T02:10:42.761Z,8.88
2019-04-01T02:16:37.773Z,9.9
2019-04-01T02:22:32.783Z,8.91
2019-04-01T02:28:27.833Z,8.3
2019-04-01T02:34:22.776Z,6.45
2019-04-01T02:40:21.675Z,8.58
2019-04-01T02:46:12.831Z,7.94
2019-04-01T02:52:07.765Z,6.56
2019-04-01T02:58:02.844Z,7.28
2019-04-01T03:03:57.813Z,8.24
2019-04-01T03:09:52.859Z,9.3
2019-04-01T03:15:47.803Z,9.93
2019-04-01T03:21:42.801Z,14.59
2019-04-01T03:27:38.157Z,12.85
2019-04-01T03:33:33.114Z,24.7
2019-04-01T03:39:27.802Z,20.59
2019-04-01T03:45:22.820Z,19.76
2019-04-01T03:51:17.849Z,20.32
2019-04-01T03:57:12.852Z,23.28
2019-04-01T04:03:07.852Z,26.08
2019-04-01T04:09:02.830Z,25.26
2019-04-01T04:14:57.880Z,25.37
2019-04-01T04:20:52.831Z,17.37
2019-04-01T04:26:47.850Z,18.4
2019-04-01T04:32:42.885Z,21.15
2019-04-01T04:38:37.853Z,17.59
2019-04-01T04:44:33.159Z,15.65
2019-04-01T04:50:27.841Z,14.29
2019-04-01T04:56:22.851Z,15.83
2019-04-01T05:02:17.849Z,17.1
2019-04-01T05:08:12.879Z,20.16
2019-04-01T05:14:07.905Z,18.08
2019-04-01T05:20:02.931Z,17.71
2019-04-01T05:25:57.869Z,17.55
2019-04-01T05:31:52.867Z,18.62
2019-04-01T05:37:47.879Z,14.77
2019-04-01T05:43:42.919Z,15.22
2019-04-01T05:49:38.003Z,16.51
2019-04-01T05:55:33.198Z,16.25
2019-04-01T06:01:27.904Z,18.66
2019-04-01T06:07:22.905Z,17.78
2019-04-01T06:13:17.896Z,15.75
2019-04-01T06:25:07.958Z,21.15
2019-04-01T06:25:07.962Z,20.36
2019-04-01T06:31:02.915Z,17.4
2019-04-01T06:36:57.917Z,17.63
2019-04-01T06:42:52.938Z,22.58
2019-04-01T06:48:47.934Z,17.03
2019-04-01T06:54:42.933Z,16.7
2019-04-01T07:00:38.237Z,16.34
2019-04-01T07:06:33.244Z,12.67
2019-04-01T07:12:27.948Z,12.87
2019-04-01T07:18:22.969Z,17.63
2019-04-01T07:24:17.944Z,13.99
2019-04-01T07:30:12.932Z,15.32
2019-04-01T07:36:07.988Z,15.98
2019-04-01T07:42:02.949Z,16.22
2019-04-01T07:47:57.975Z,17.33
2019-04-01T07:53:52.978Z,16.47
2019-04-01T07:59:47.978Z,17.57
2019-04-01T08:11:38.298Z,16.64
2019-04-01T08:11:38.380Z,18.21
2019-04-01T08:17:33.283Z,21.07
2019-04-01T08:23:28.004Z,18.79
2019-04-01T08:29:29.768Z,16.84
2019-04-01T08:35:18.003Z,19.77
2019-04-01T08:41:13.024Z,19.47
2019-04-01T08:47:07.985Z,19.99
2019-04-01T08:53:02.997Z,18.88
2019-04-01T09:04:53.029Z,18.48
2019-04-01T09:04:53.104Z,16.77
2019-04-01T09:10:48.006Z,18.17
2019-04-01T09:16:43.024Z,26.61
2019-04-01T09:22:38.018Z,19.77
2019-04-01T09:28:33.167Z,16.76
2019-04-01T09:34:28.021Z,20.94
2019-04-01T09:40:23.017Z,25.95
2019-04-01T09:46:18.066Z,26.64
2019-04-01T09:58:08.058Z,26.77
2019-04-01T09:58:08.093Z,22.81
2019-04-01T10:04:03.077Z,23.31
2019-04-01T10:09:58.069Z,22.01
2019-04-01T10:15:53.095Z,25.16
2019-04-01T10:21:48.043Z,25.54
2019-04-01T10:27:43.116Z,25.08
2019-04-01T10:33:38.127Z,24.84
2019-04-01T10:39:33.397Z,26.89
2019-04-01T10:45:28.117Z,22.57
2019-04-01T10:51:23.107Z,22.88
2019-04-01T10:57:18.230Z,27.12
2019-04-01T11:03:13.117Z,21.05
2019-04-01T11:09:08.106Z,23.71
2019-04-01T11:15:03.120Z,18.71
2019-04-01T11:20:58.135Z,19.41
2019-04-01T11:26:53.146Z,18.11
2019-04-01T11:32:48.176Z,15.22
2019-04-01T11:38:43.139Z,15.22
2019-04-01T11:44:38.255Z,14.72
2019-04-01T11:50:33.143Z,19.72
2019-04-01T11:56:28.180Z,18.12
2019-04-01T12:02:23.157Z,15.13
2019-04-01T12:08:18.149Z,13.59
2019-04-01T12:14:13.156Z,11.93
2019-04-01T12:20:09.349Z,11.22
2019-04-01T12:26:14.205Z,9.82
2019-04-01T12:31:59.689Z,9.19
2019-04-01T12:37:53.181Z,9.93
2019-04-01T12:43:48.278Z,9.12
2019-04-01T12:49:43.171Z,10.07
2019-04-01T12:55:38.196Z,7.09
2019-04-01T13:01:33.164Z,10.04
2019-04-01T13:07:28.144Z,7.38
2019-04-01T13:13:23.230Z,8
2019-04-01T13:19:18.242Z,8.91
2019-04-01T13:25:13.221Z,9.34
2019-04-01T13:31:08.209Z,5.37
2019-04-01T13:37:03.223Z,14.33
2019-04-01T13:42:58.238Z,8.95
2019-04-01T13:48:57.791Z,6.23
2019-04-01T13:54:48.210Z,8.89
2019-04-01T14:00:43.236Z,7.81
2019-04-01T14:06:38.516Z,6.44
2019-04-01T14:12:33.338Z,7.09
2019-04-01T14:18:28.257Z,5.24
2019-04-01T14:24:23.236Z,11.28
2019-04-01T14:30:18.252Z,8.87
2019-04-01T14:36:13.284Z,6.9
2019-04-01T14:42:08.645Z,7.76
2019-04-01T14:48:03.271Z,7.51
2019-04-01T14:53:58.274Z,7.01
2019-04-01T14:59:56.104Z,7.47
2019-04-01T15:05:49.092Z,6.17
2019-04-01T15:11:43.330Z,6.76
2019-04-01T15:17:38.270Z,10.25
2019-04-01T15:23:33.318Z,5.03
2019-04-01T15:29:29.077Z,8.21
2019-04-01T15:35:23.276Z,6.94
2019-04-01T15:41:18.286Z,6.58
2019-04-01T15:47:13.290Z,5.77
2019-04-01T15:53:08.346Z,8.6
2019-04-01T15:59:03.302Z,11.76
2019-04-01T16:04:58.296Z,9.54
2019-04-01T16:10:53.292Z,11.69
2019-04-01T16:16:48.320Z,12.98
2019-04-01T16:22:43.720Z,4.19
2019-04-01T16:28:38.597Z,12.91
2019-04-01T16:34:33.972Z,6.17
2019-04-01T16:40:28.341Z,6.46
2019-04-01T16:46:23.339Z,3.76
2019-04-01T16:52:18.381Z,46.63
2019-04-01T16:58:13.329Z,16.7
2019-04-01T17:04:08.365Z,8.37
2019-04-01T17:10:04.247Z,5.93
2019-04-01T17:16:01.358Z,4.73
2019-04-01T17:21:53.360Z,5.51
2019-04-01T17:27:48.410Z,5.08
2019-04-01T17:33:43.400Z,5.85
2019-04-01T17:39:38.668Z,7.37
2019-04-01T17:45:33.371Z,5.55
2019-04-01T17:51:28.395Z,5.44
2019-04-01T17:57:23.415Z,8.63
2019-04-01T18:03:18.407Z,7.67
2019-04-01T18:09:13.379Z,8.33
2019-04-01T18:15:08.474Z,9.78
2019-04-01T18:21:03.717Z,5.14
2019-04-01T18:26:58.390Z,7.91
2019-04-01T18:32:55.202Z,6.35
2019-04-01T18:38:48.400Z,8.63
2019-04-01T18:44:43.402Z,9.01
2019-04-01T18:50:38.730Z,12.29
2019-04-01T18:56:33.403Z,10.51
2019-04-01T19:02:28.428Z,12.09
2019-04-01T19:08:23.433Z,10.88
2019-04-01T19:14:18.418Z,10.53
2019-04-01T19:20:13.420Z,11.67
2019-04-01T19:26:10.037Z,10.21
2019-04-01T19:32:03.432Z,12.07
2019-04-01T19:38:07.116Z,10.13
2019-04-01T19:55:53.336Z,14.44
2019-04-01T19:55:56.776Z,13.06
2019-04-01T19:55:57.444Z,13.06
2019-04-01T20:01:42.830Z,9.97
2019-04-01T20:07:37.518Z,11.26
2019-04-01T20:13:35.124Z,9.6
2019-04-01T20:19:28.638Z,10.89
2019-04-01T20:25:35.442Z,11.42
2019-04-01T20:31:31.989Z,12.2
2019-04-01T20:37:08.476Z,20.31
2019-04-01T20:43:07.659Z,16.43
2019-04-01T20:48:58.500Z,14.15
2019-04-01T20:54:53.485Z,13.82
2019-04-01T21:00:48.509Z,12.01
2019-04-01T21:06:43.571Z,14.7
2019-04-01T21:12:38.989Z,12.01
2019-04-01T21:18:33.727Z,14.96
2019-04-01T21:24:28.558Z,18.09
2019-04-01T21:30:23.525Z,15.75
2019-04-01T21:36:18.521Z,17.64
2019-04-01T21:42:13.512Z,18.64
2019-04-01T21:48:10.320Z,20
2019-04-01T21:54:03.526Z,19.21
2019-04-01T21:59:58.524Z,19.74
2019-04-01T22:05:53.559Z,15.71
2019-04-01T22:11:48.534Z,18.49
2019-04-01T22:17:43.822Z,14.35
2019-04-01T22:23:38.875Z,12.11
2019-04-01T22:29:33.533Z,11.37
2019-04-01T22:35:37.976Z,11.53
2019-04-01T22:41:23.551Z,10.71
2019-04-01T22:47:18.596Z,12
2019-04-01T22:53:13.571Z,9.63
2019-04-01T22:59:08.640Z,14.12
2019-04-01T23:05:03.557Z,12.05
2019-04-01T23:10:58.614Z,11.25
2019-04-01T23:16:53.596Z,16.63
2019-04-01T23:22:48.583Z,13.38
2019-04-01T23:28:43.887Z,10.91
2019-04-01T23:34:38.886Z,15.72
2019-04-01T23:40:33.601Z,16.73
2019-04-01T23:46:28.601Z,11.1
2019-04-01T23:52:23.610Z,11.68
2019-04-01T23:58:18.648Z,12.57
